Time;durP1;ratioP1;P1;durP2;ratioP2;P2;SDS_P1;SDS_P2;PMS_P1;PMS_P2;Temp;Humidity;BMP_temperature;BMP_pressure;BME280_temperature;BME280_humidity;BME280_pressure;Samples;Min_cycle;Max_cycle;Signal;HPM_P1;HPM_P2
2022/06/09 00:00:37;;;;;;;0.20;0.20;;;;;;;;;;5095225;28;20379;-80
2022/06/09 00:03:09;;;;;;;0.20;0.20;;;;;;;;;;5095088;28;20047;-79
2022/06/09 00:05:36;;;;;;;0.20;0.20;;;;;;;;;;5095162;28;20035;-80
2022/06/09 00:08:04;;;;;;;0.20;0.20;;;;;;;;;;5076928;28;20114;-79
2022/06/09 00:10:32;;;;;;;0.20;0.20;;;;;;;;;;5095190;28;20070;-79
2022/06/09 00:12:59;;;;;;;0.20;0.20;;;;;;;;;;5076914;28;20032;-78
2022/06/09 00:15:25;;;;;;;4.72;3.95;;;;;;;;;;5094972;28;20024;-78
2022/06/09 00:17:50;;;;;;;0.20;0.20;;;;;;;;;;5094828;28;20035;-78
2022/06/09 00:20:17;;;;;;;0.20;0.20;;;;;;;;;;5094712;28;20046;-79
2022/06/09 00:22:43;;;;;;;0.30;0.30;;;;;;;;;;5094297;28;20122;-79
2022/06/09 00:25:09;;;;;;;0.30;0.30;;;;;;;;;;5095246;28;20446;-80
2022/06/09 00:27:35;;;;;;;9.77;8.77;;;;;;;;;;5076418;28;20028;-79
2022/06/09 00:30:01;;;;;;;0.28;0.28;;;;;;;;;;5077095;28;20039;-79
2022/06/09 00:32:26;;;;;;;0.40;0.40;;;;;;;;;;5076628;28;20487;-77
2022/06/09 00:34:52;;;;;;;0.20;0.20;;;;;;;;;;5093346;28;20059;-78
2022/06/09 00:37:18;;;;;;;0.20;0.20;;;;;;;;;;5094241;28;20027;-79
2022/06/09 00:39:43;;;;;;;0.65;0.65;;;;;;;;;;5094416;28;20035;-80
2022/06/09 00:42:09;;;;;;;0.20;0.20;;;;;;;;;;5076288;28;20020;-79
2022/06/09 00:44:38;;;;;;;0.30;0.30;;;;;;;;;;5094331;28;20028;-79
2022/06/09 00:47:06;;;;;;;0.30;0.30;;;;;;;;;;5094285;28;20036;-79
2022/06/09 00:49:35;;;;;;;0.20;0.20;;;;;;;;;;5076186;28;20039;-77
2022/06/09 00:52:03;;;;;;;0.17;0.17;;;;;;;;;;5094335;28;20454;-79
2022/06/09 00:54:39;;;;;;;0.30;0.30;;;;;;;;;;5098013;28;20040;-81
2022/06/09 00:57:26;;;;;;;0.20;0.20;;;;;;;;;;5081119;28;20044;-80
2022/06/09 00:59:54;;;;;;;0.20;0.20;;;;;;;;;;5099265;28;20047;-78
2022/06/09 01:02:21;;;;;;;0.20;0.20;;;;;;;;;;5076193;28;20510;-80
2022/06/09 01:04:47;;;;;;;0.55;0.55;;;;;;;;;;5094306;28;20111;-79
2022/06/09 01:07:15;;;;;;;8.77;2.33;;;;;;;;;;5094268;28;20407;-80
2022/06/09 01:09:41;;;;;;;0.20;0.20;;;;;;;;;;5075885;28;20077;-79
2022/06/09 01:12:39;;;;;;;0.30;0.30;;;;;;;;;;5076238;28;20027;-79
2022/06/09 01:15:19;;;;;;;0.20;0.20;;;;;;;;;;5049403;28;20044;-79
2022/06/09 01:17:57;;;;;;;0.20;0.20;;;;;;;;;;5094266;28;20414;-80
2022/06/09 01:20:40;;;;;;;1.15;1.05;;;;;;;;;;5094145;28;20047;-80
2022/06/09 01:23:15;;;;;;;0.20;0.20;;;;;;;;;;5075432;28;20131;-80
2022/06/09 01:25:51;;;;;;;0.20;0.20;;;;;;;;;;5093840;28;20029;-80
2022/06/09 01:28:35;;;;;;;0.20;0.20;;;;;;;;;;5094088;28;20070;-80
2022/06/09 01:31:12;;;;;;;0.20;0.20;;;;;;;;;;5093994;28;20475;-80
2022/06/09 01:33:38;;;;;;;0.20;0.20;;;;;;;;;;5093737;28;20036;-80
2022/06/09 01:36:21;;;;;;;0.10;0.10;;;;;;;;;;5093864;28;20394;-80
2022/06/09 01:38:48;;;;;;;0.30;0.30;;;;;;;;;;5093690;28;20140;-80
2022/06/09 01:41:14;;;;;;;0.10;0.10;;;;;;;;;;5075804;28;20028;-81
2022/06/09 01:43:40;;;;;;;0.20;0.20;;;;;;;;;;5093563;28;20054;-81
2022/06/09 01:46:09;;;;;;;0.20;0.20;;;;;;;;;;5093380;28;20036;-81
2022/06/09 01:48:35;;;;;;;0.20;0.20;;;;;;;;;;5075794;28;20527;-81
2022/06/09 01:51:07;;;;;;;0.30;0.30;;;;;;;;;;5093662;28;20110;-80
2022/06/09 01:53:32;;;;;;;0.20;0.20;;;;;;;;;;5075274;28;20054;-80
2022/06/09 01:56:03;;;;;;;0.20;0.20;;;;;;;;;;5093219;28;20116;-80
2022/06/09 01:58:31;;;;;;;0.20;0.20;;;;;;;;;;5093521;28;20114;-80
2022/06/09 02:00:59;;;;;;;0.20;0.20;;;;;;;;;;5093347;28;20024;-80
2022/06/09 02:03:28;;;;;;;0.35;0.35;;;;;;;;;;5093407;28;20055;-81
2022/06/09 02:05:55;;;;;;;0.20;0.20;;;;;;;;;;5093192;28;20024;-81
2022/06/09 02:08:22;;;;;;;3.35;1.13;;;;;;;;;;5093188;28;20032;-81
2022/06/09 02:10:52;;;;;;;0.20;0.20;;;;;;;;;;5075025;28;20036;-80
2022/06/09 02:13:20;;;;;;;0.22;0.22;;;;;;;;;;5092948;28;20032;-79
2022/06/09 02:15:50;;;;;;;0.20;0.20;;;;;;;;;;5093157;28;20032;-81
2022/06/09 02:18:17;;;;;;;0.20;0.20;;;;;;;;;;5093148;28;20038;-81
2022/06/09 02:20:46;;;;;;;0.20;0.20;;;;;;;;;;5074923;28;20046;-81
2022/06/09 02:23:12;;;;;;;0.10;0.10;;;;;;;;;;5093102;28;20036;-81
2022/06/09 02:25:39;;;;;;;0.20;0.20;;;;;;;;;;5092838;28;20483;-82
2022/06/09 02:28:08;;;;;;;0.20;0.20;;;;;;;;;;5092592;28;20105;-80
2022/06/09 02:30:34;;;;;;;0.35;0.35;;;;;;;;;;5075007;28;20024;-79
2022/06/09 02:33:00;;;;;;;0.70;0.60;;;;;;;;;;5092805;28;20447;-80
2022/06/09 02:35:26;;;;;;;0.20;0.20;;;;;;;;;;5092639;28;20101;-80
2022/06/09 02:37:51;;;;;;;0.20;0.20;;;;;;;;;;5092689;28;20119;-81
2022/06/09 02:40:17;;;;;;;0.20;0.20;;;;;;;;;;5092904;28;20371;-79
2022/06/09 02:42:43;;;;;;;0.20;0.20;;;;;;;;;;5092257;28;20032;-79
2022/06/09 02:45:09;;;;;;;0.20;0.20;;;;;;;;;;5092871;28;20038;-79
2022/06/09 02:47:34;;;;;;;0.20;0.20;;;;;;;;;;5092478;28;20054;-79
2022/06/09 02:50:02;;;;;;;0.20;0.20;;;;;;;;;;5093652;28;20050;-79
2022/06/09 02:52:29;;;;;;;0.20;0.20;;;;;;;;;;5092616;28;20024;-79
2022/06/09 02:54:55;;;;;;;0.30;0.30;;;;;;;;;;5074639;28;20039;-80
2022/06/09 02:57:23;;;;;;;0.22;0.22;;;;;;;;;;5092673;28;20043;-80
2022/06/09 02:59:50;;;;;;;0.20;0.20;;;;;;;;;;5095239;28;20515;-80
2022/06/09 03:02:16;;;;;;;0.20;0.20;;;;;;;;;;5092520;28;20050;-79
2022/06/09 03:04:42;;;;;;;0.20;0.20;;;;;;;;;;5092153;28;20463;-80
2022/06/09 03:07:08;;;;;;;0.20;0.20;;;;;;;;;;5074182;28;20039;-80
2022/06/09 03:09:33;;;;;;;0.20;0.20;;;;;;;;;;5092084;28;20514;-83
2022/06/09 03:11:59;;;;;;;0.50;0.50;;;;;;;;;;5091759;28;20020;-80
2022/06/09 03:14:25;;;;;;;0.20;0.20;;;;;;;;;;5092273;28;20497;-82
2022/06/09 03:16:50;;;;;;;0.20;0.20;;;;;;;;;;5095789;28;20065;-81
2022/06/09 03:19:17;;;;;;;0.68;0.68;;;;;;;;;;5096595;28;20028;-80
2022/06/09 03:21:43;;;;;;;0.20;0.20;;;;;;;;;;5078537;28;20040;-79
2022/06/09 03:24:09;;;;;;;0.17;0.17;;;;;;;;;;5092441;28;20047;-79
2022/06/09 03:26:34;;;;;;;0.20;0.20;;;;;;;;;;5091617;28;20040;-80
2022/06/09 03:29:00;;;;;;;0.20;0.20;;;;;;;;;;5091873;28;20032;-78
2022/06/09 03:31:26;;;;;;;3.13;2.85;;;;;;;;;;5091668;28;20052;-77
2022/06/09 03:33:52;;;;;;;0.20;0.20;;;;;;;;;;5073680;28;20044;-78
2022/06/09 03:36:18;;;;;;;0.20;0.20;;;;;;;;;;5091497;28;20402;-79
2022/06/09 03:38:43;;;;;;;0.15;0.15;;;;;;;;;;5091351;28;20445;-78
2022/06/09 03:41:09;;;;;;;5.78;2.53;;;;;;;;;;5091822;28;20035;-78
2022/06/09 03:43:35;;;;;;;0.20;0.20;;;;;;;;;;5091513;28;20571;-79
2022/06/09 03:46:02;;;;;;;0.30;0.30;;;;;;;;;;5091308;28;20124;-76
2022/06/09 03:48:28;;;;;;;0.20;0.20;;;;;;;;;;5073452;28;20040;-78
2022/06/09 03:50:54;;;;;;;0.10;0.10;;;;;;;;;;5091423;28;20450;-79
2022/06/09 03:53:20;;;;;;;0.17;0.17;;;;;;;;;;5091573;28;20064;-79
2022/06/09 03:55:46;;;;;;;0.17;0.17;;;;;;;;;;5073331;28;20119;-79
2022/06/09 03:58:12;;;;;;;0.20;0.20;;;;;;;;;;5091019;28;20020;-80
2022/06/09 04:00:37;;;;;;;0.10;0.10;;;;;;;;;;5090333;28;20049;-79
2022/06/09 04:03:04;;;;;;;0.20;0.20;;;;;;;;;;5091128;28;20161;-79
2022/06/09 04:05:30;;;;;;;0.20;0.20;;;;;;;;;;5091101;28;20391;-80
2022/06/09 04:07:57;;;;;;;0.20;0.20;;;;;;;;;;5073003;28;20028;-76
2022/06/09 04:10:25;;;;;;;0.25;0.25;;;;;;;;;;5089871;28;20479;-79
2022/06/09 04:12:51;;;;;;;0.20;0.20;;;;;;;;;;5090719;28;20830;-78
2022/06/09 04:15:17;;;;;;;0.20;0.20;;;;;;;;;;5056436;28;20059;-77
2022/06/09 04:17:43;;;;;;;0.25;0.25;;;;;;;;;;5091089;28;20120;-79
2022/06/09 04:20:10;;;;;;;0.10;0.10;;;;;;;;;;5090605;28;20024;-79
2022/06/09 04:22:36;;;;;;;0.20;0.20;;;;;;;;;;5090956;28;20046;-78
2022/06/09 04:25:01;;;;;;;0.20;0.20;;;;;;;;;;5090650;28;20119;-76
2022/06/09 04:27:27;;;;;;;0.20;0.20;;;;;;;;;;5090946;28;20027;-79
2022/06/09 04:29:52;;;;;;;0.13;0.13;;;;;;;;;;5089791;28;20574;-77
2022/06/09 04:32:18;;;;;;;0.10;0.10;;;;;;;;;;5090483;28;20032;-78
2022/06/09 04:34:44;;;;;;;0.10;0.10;;;;;;;;;;5072132;28;20114;-76
2022/06/09 04:37:09;;;;;;;0.20;0.20;;;;;;;;;;5097572;28;20024;-76
2022/06/09 04:39:35;;;;;;;0.63;0.63;;;;;;;;;;5114783;28;20028;-77
2022/06/09 04:42:00;;;;;;;0.20;0.20;;;;;;;;;;5115482;28;20024;-76
2022/06/09 04:44:26;;;;;;;0.30;0.30;;;;;;;;;;5080625;28;20486;-77
2022/06/09 04:46:51;;;;;;;0.20;0.20;;;;;;;;;;5089031;28;20031;-78
2022/06/09 04:49:17;;;;;;;0.30;0.30;;;;;;;;;;5090181;28;20597;-76
2022/06/09 04:51:43;;;;;;;0.20;0.20;;;;;;;;;;5089701;28;20067;-78
2022/06/09 04:54:08;;;;;;;0.20;0.20;;;;;;;;;;5088829;28;20030;-78
2022/06/09 04:56:34;;;;;;;0.20;0.20;;;;;;;;;;5070315;28;20091;-77
2022/06/09 04:59:00;;;;;;;0.20;0.20;;;;;;;;;;5088797;28;20101;-78
2022/06/09 05:01:30;;;;;;;0.20;0.20;;;;;;;;;;5067937;28;20086;-77
2022/06/09 05:03:56;;;;;;;0.22;0.22;;;;;;;;;;5084928;28;20047;-80
2022/06/09 05:06:23;;;;;;;0.20;0.20;;;;;;;;;;5077014;28;20059;-79
2022/06/09 05:08:48;;;;;;;0.20;0.20;;;;;;;;;;5078437;28;20032;-79
2022/06/09 05:11:14;;;;;;;0.30;0.30;;;;;;;;;;5069931;28;20036;-79
2022/06/09 05:13:40;;;;;;;0.10;0.10;;;;;;;;;;5070216;28;20911;-79
2022/06/09 05:16:06;;;;;;;0.20;0.20;;;;;;;;;;5070186;28;20044;-79
2022/06/09 05:18:32;;;;;;;0.10;0.10;;;;;;;;;;5069821;28;20032;-78
2022/06/09 05:20:57;;;;;;;0.22;0.22;;;;;;;;;;5069044;28;20360;-77
2022/06/09 05:23:23;;;;;;;0.25;0.25;;;;;;;;;;5082440;28;20040;-78
2022/06/09 05:25:50;;;;;;;0.30;0.30;;;;;;;;;;5089922;28;20620;-78
2022/06/09 05:28:16;;;;;;;0.20;0.20;;;;;;;;;;5089416;28;20188;-77
2022/06/09 05:30:41;;;;;;;0.20;0.20;;;;;;;;;;5086963;28;20024;-77
2022/06/09 05:33:07;;;;;;;0.28;0.28;;;;;;;;;;5089283;28;20036;-77
2022/06/09 05:35:33;;;;;;;0.17;0.17;;;;;;;;;;5071189;28;20361;-77
2022/06/09 05:46:15;;;;;;;0.20;0.20;;;;;;;;;;5089534;28;20028;-76
2022/06/09 05:48:44;;;;;;;0.50;0.50;;;;;;;;;;5089315;28;20491;-77
2022/06/09 05:51:10;;;;;;;0.20;0.20;;;;;;;;;;5088944;28;20020;-78
2022/06/09 05:53:37;;;;;;;0.20;0.20;;;;;;;;;;5086325;28;20040;-78
2022/06/09 05:56:03;;;;;;;0.20;0.20;;;;;;;;;;5089662;28;20123;-79
2022/06/09 05:58:29;;;;;;;0.30;0.30;;;;;;;;;;5084049;28;20418;-77
2022/06/09 06:00:54;;;;;;;0.20;0.20;;;;;;;;;;5088733;28;20036;-77
2022/06/09 06:03:19;;;;;;;0.20;0.20;;;;;;;;;;5071294;28;20076;-78
2022/06/09 06:08:29;;;;;;;0.20;0.20;;;;;;;;;;5069983;28;20035;-77
2022/06/09 06:10:56;;;;;;;0.20;0.20;;;;;;;;;;5089741;28;20050;-79
2022/06/09 06:13:21;;;;;;;0.20;0.20;;;;;;;;;;5089596;28;20555;-78
2022/06/09 06:15:47;;;;;;;0.20;0.20;;;;;;;;;;5087094;28;20024;-78
2022/06/09 06:18:12;;;;;;;0.20;0.20;;;;;;;;;;5086973;28;20040;-77
2022/06/09 06:20:38;;;;;;;0.20;0.20;;;;;;;;;;5087163;28;20028;-79
2022/06/09 06:23:03;;;;;;;0.13;0.13;;;;;;;;;;5087227;28;20039;-78
2022/06/09 06:25:29;;;;;;;0.20;0.20;;;;;;;;;;5087033;28;20105;-78
2022/06/09 06:27:55;;;;;;;0.20;0.20;;;;;;;;;;5087131;28;20475;-80
2022/06/09 06:30:20;;;;;;;0.40;0.40;;;;;;;;;;5088695;28;20498;-76
2022/06/09 06:32:46;;;;;;;6.13;3.40;;;;;;;;;;5088203;28;20044;-78
2022/06/09 06:35:13;;;;;;;0.20;0.20;;;;;;;;;;5088906;28;20028;-78
2022/06/09 06:37:38;;;;;;;0.22;0.22;;;;;;;;;;5088831;28;20797;-79
2022/06/09 06:40:04;;;;;;;0.20;0.20;;;;;;;;;;5088726;28;20028;-79
2022/06/09 06:42:30;;;;;;;0.73;0.55;;;;;;;;;;5088780;28;20035;-79
2022/06/09 06:44:55;;;;;;;1.10;0.28;;;;;;;;;;5088492;28;20487;-78
2022/06/09 06:47:21;;;;;;;0.20;0.20;;;;;;;;;;5088919;28;20044;-79
2022/06/09 06:49:46;;;;;;;0.20;0.20;;;;;;;;;;5070459;28;20467;-77
2022/06/09 06:52:12;;;;;;;0.20;0.20;;;;;;;;;;5088592;28;20028;-77
2022/06/09 06:54:38;;;;;;;0.10;0.10;;;;;;;;;;5088956;28;20479;-78
2022/06/09 06:57:05;;;;;;;0.20;0.20;;;;;;;;;;5088634;28;20024;-78
2022/06/09 06:59:32;;;;;;;0.30;0.30;;;;;;;;;;5088440;28;20044;-76
2022/06/09 07:01:57;;;;;;;0.20;0.20;;;;;;;;;;5088411;28;20044;-78
2022/06/09 07:04:23;;;;;;;0.65;0.63;;;;;;;;;;5088797;28;20036;-78
2022/06/09 07:06:48;;;;;;;0.15;0.15;;;;;;;;;;5088571;28;20822;-78
2022/06/09 07:09:14;;;;;;;0.22;0.22;;;;;;;;;;5070397;28;20533;-79
2022/06/09 07:11:40;;;;;;;0.25;0.25;;;;;;;;;;5088346;28;20403;-78
2022/06/09 07:14:05;;;;;;;0.13;0.13;;;;;;;;;;5088178;28;20020;-77
2022/06/09 07:16:33;;;;;;;0.32;0.32;;;;;;;;;;5088248;28;20067;-79
2022/06/09 07:18:58;;;;;;;0.30;0.30;;;;;;;;;;5088701;28;20016;-77
2022/06/09 07:21:23;;;;;;;0.20;0.20;;;;;;;;;;5070309;28;20043;-78
2022/06/09 07:23:49;;;;;;;0.20;0.20;;;;;;;;;;5070166;28;20044;-78
2022/06/09 07:26:14;;;;;;;0.35;0.35;;;;;;;;;;5087793;28;20119;-78
2022/06/09 07:28:40;;;;;;;8.30;2.05;;;;;;;;;;5069885;28;20519;-76
2022/06/09 07:31:06;;;;;;;0.63;0.30;;;;;;;;;;5088338;28;20035;-77
2022/06/09 07:33:33;;;;;;;5.20;2.28;;;;;;;;;;5087862;28;20036;-76
2022/06/09 07:35:58;;;;;;;2.95;0.65;;;;;;;;;;5069820;28;20036;-76
2022/06/09 07:38:25;;;;;;;3.63;0.30;;;;;;;;;;5087817;28;20031;-76
2022/06/09 07:40:51;;;;;;;4.20;0.57;;;;;;;;;;5087826;28;20115;-76
2022/06/09 07:43:19;;;;;;;2.30;0.70;;;;;;;;;;5087631;28;20024;-78
2022/06/09 07:45:45;;;;;;;0.35;0.32;;;;;;;;;;5090488;28;20036;-76
2022/06/09 07:48:10;;;;;;;0.55;0.40;;;;;;;;;;5091153;28;20414;-76
2022/06/09 07:50:36;;;;;;;0.30;0.30;;;;;;;;;;5091127;28;20032;-78
2022/06/09 07:53:02;;;;;;;0.28;0.28;;;;;;;;;;5073071;28;20032;-76
2022/06/09 07:55:28;;;;;;;12.13;2.22;;;;;;;;;;5091488;28;20067;-77
2022/06/09 07:57:54;;;;;;;4.22;1.23;;;;;;;;;;5091188;28;20024;-76
2022/06/09 08:00:20;;;;;;;6.57;1.60;;;;;;;;;;5093306;28;20042;-77
2022/06/09 08:02:46;;;;;;;3.97;2.13;;;;;;;;;;5094121;28;20036;-78
2022/06/09 08:05:12;;;;;;;3.03;0.70;;;;;;;;;;5094440;28;20050;-77
2022/06/09 08:07:38;;;;;;;0.63;0.50;;;;;;;;;;5091488;28;20020;-78
2022/06/09 08:10:05;;;;;;;0.25;0.25;;;;;;;;;;5091069;28;20497;-77
2022/06/09 08:12:30;;;;;;;0.25;0.25;;;;;;;;;;5091114;28;20020;-78
2022/06/09 08:14:56;;;;;;;2.30;1.85;;;;;;;;;;5090748;28;20093;-76
2022/06/09 08:17:22;;;;;;;0.98;0.43;;;;;;;;;;5091518;28;20060;-76
2022/06/09 08:19:48;;;;;;;3.10;1.85;;;;;;;;;;5072740;28;20082;-77
2022/06/09 08:22:13;;;;;;;7.07;1.70;;;;;;;;;;5090899;28;20550;-80
2022/06/09 08:24:39;;;;;;;0.57;0.40;;;;;;;;;;5091029;28;20496;-77
2022/06/09 08:27:04;;;;;;;1.00;0.50;;;;;;;;;;5090788;28;20051;-78
2022/06/09 08:29:30;;;;;;;1.73;0.70;;;;;;;;;;5090838;28;20032;-79
2022/06/09 08:31:56;;;;;;;0.77;0.77;;;;;;;;;;5073296;28;20423;-80
2022/06/09 08:34:21;;;;;;;0.50;0.50;;;;;;;;;;5073006;28;20524;-79
2022/06/09 08:36:47;;;;;;;4.38;0.73;;;;;;;;;;5090895;28;20527;-76
2022/06/09 08:39:12;;;;;;;0.52;0.40;;;;;;;;;;5090542;28;20032;-77
2022/06/09 08:41:47;;;;;;;0.85;0.52;;;;;;;;;;5090366;28;20020;-77
2022/06/09 08:44:24;;;;;;;0.57;0.57;;;;;;;;;;5090001;28;20125;-77
2022/06/09 08:46:50;;;;;;;5.60;1.27;;;;;;;;;;5072506;28;20032;-76
2022/06/09 08:49:21;;;;;;;0.32;0.32;;;;;;;;;;5090586;28;20038;-79
2022/06/09 08:51:48;;;;;;;3.50;0.73;;;;;;;;;;5077330;28;20411;-76
2022/06/09 08:54:22;;;;;;;5.28;1.77;;;;;;;;;;5088831;28;20072;-76
2022/06/09 08:56:49;;;;;;;1.85;0.95;;;;;;;;;;5070112;28;20036;-74
2022/06/09 08:59:20;;;;;;;4.97;1.48;;;;;;;;;;5088833;28;20027;-75
2022/06/09 09:01:52;;;;;;;0.85;0.85;;;;;;;;;;5072261;28;20047;-75
2022/06/09 09:04:23;;;;;;;4.68;0.90;;;;;;;;;;5087256;28;20032;-77
2022/06/09 09:07:13;;;;;;;5.60;0.98;;;;;;;;;;5107594;28;20331;-75
2022/06/09 09:09:39;;;;;;;2.83;1.15;;;;;;;;;;5093342;28;20036;-76
2022/06/09 09:12:23;;;;;;;0.57;0.52;;;;;;;;;;5089370;28;20027;-77
2022/06/09 09:14:51;;;;;;;3.75;1.33;;;;;;;;;;5088941;28;20032;-74
2022/06/09 09:17:20;;;;;;;0.98;0.32;;;;;;;;;;5089544;28;20471;-76
2022/06/09 09:19:51;;;;;;;4.32;1.08;;;;;;;;;;5070543;28;20044;-75
2022/06/09 09:22:20;;;;;;;6.20;1.33;;;;;;;;;;5089004;28;20057;-75
2022/06/09 09:24:45;;;;;;;7.22;1.35;;;;;;;;;;5088447;28;20047;-75
2022/06/09 09:27:16;;;;;;;5.45;0.95;;;;;;;;;;5089043;28;20381;-75
2022/06/09 09:29:45;;;;;;;6.13;1.85;;;;;;;;;;5071341;28;20074;-75
2022/06/09 09:32:18;;;;;;;15.70;3.45;;;;;;;;;;5071407;28;20483;-75
2022/06/09 09:34:45;;;;;;;1.15;0.47;;;;;;;;;;5088753;28;20040;-75
2022/06/09 09:37:11;;;;;;;5.95;1.42;;;;;;;;;;5085337;28;20048;-76
2022/06/09 09:39:57;;;;;;;0.22;0.22;;;;;;;;;;5080863;28;20028;-76
2022/06/09 09:42:25;;;;;;;2.17;1.23;;;;;;;;;;5086170;28;20430;-75
2022/06/09 09:45:08;;;;;;;3.03;0.65;;;;;;;;;;5088179;28;20113;-76
2022/06/09 09:47:42;;;;;;;6.38;1.35;;;;;;;;;;5089377;28;20035;-76
2022/06/09 09:50:18;;;;;;;0.45;0.25;;;;;;;;;;5087926;28;20591;-76
2022/06/09 09:52:45;;;;;;;3.75;1.58;;;;;;;;;;5089693;28;20058;-75
2022/06/09 09:55:29;;;;;;;8.77;2.75;;;;;;;;;;5071442;28;20556;-75
2022/06/09 09:58:09;;;;;;;4.07;1.08;;;;;;;;;;5089553;28;20481;-75
2022/06/09 10:00:35;;;;;;;1.05;0.75;;;;;;;;;;5053820;28;20040;-75
2022/06/09 10:08:43;;;;;;;3.83;1.15;;;;;;;;;;5089016;28;20035;-74
2022/06/09 10:13:58;;;;;;;10.00;1.83;;;;;;;;;;5088734;28;20038;-74
2022/06/09 10:16:27;;;;;;;6.50;1.75;;;;;;;;;;5087403;28;20106;-74
2022/06/09 10:18:53;;;;;;;4.30;1.40;;;;;;;;;;5069106;28;20033;-74
2022/06/09 10:21:19;;;;;;;13.88;2.78;;;;;;;;;;5079862;28;20043;-74
2022/06/09 10:23:57;;;;;;;4.22;1.25;;;;;;;;;;5071888;28;20498;-74
2022/06/09 10:26:28;;;;;;;12.50;2.90;;;;;;;;;;5085785;28;20039;-73
2022/06/09 10:28:56;;;;;;;3.22;1.05;;;;;;;;;;5089333;28;20028;-75
2022/06/09 10:31:28;;;;;;;0.95;0.38;;;;;;;;;;5066637;28;20036;-74
2022/06/09 10:34:05;;;;;;;0.55;0.55;;;;;;;;;;5068853;28;20036;-74
2022/06/09 10:36:40;;;;;;;6.53;2.33;;;;;;;;;;5086430;28;20410;-76
2022/06/09 10:39:13;;;;;;;4.20;1.58;;;;;;;;;;5088824;28;20032;-75
2022/06/09 10:41:47;;;;;;;5.18;1.58;;;;;;;;;;5070716;28;20471;-78
2022/06/09 10:44:32;;;;;;;4.93;1.30;;;;;;;;;;5089021;28;20040;-78
2022/06/09 10:56:40;;;;;;;0.20;0.20;;;;;;;;;;5087883;28;20479;-77
2022/06/09 10:59:27;;;;;;;0.20;0.20;;;;;;;;;;5086147;28;20434;-75
2022/06/09 11:01:53;;;;;;;0.20;0.20;;;;;;;;;;5086361;28;20038;-76
2022/06/09 11:04:18;;;;;;;0.20;0.20;;;;;;;;;;5067068;28;20040;-75
2022/06/09 11:06:59;;;;;;;0.20;0.20;;;;;;;;;;5067412;28;20040;-75
2022/06/09 11:09:48;;;;;;;0.40;0.40;;;;;;;;;;5086243;28;20044;-75
2022/06/09 11:12:25;;;;;;;0.20;0.20;;;;;;;;;;5066912;28;20432;-75
2022/06/09 11:14:51;;;;;;;0.20;0.20;;;;;;;;;;5069038;28;20387;-75
2022/06/09 11:17:31;;;;;;;0.50;0.50;;;;;;;;;;5087329;28;20118;-75
2022/06/09 11:20:35;;;;;;;0.90;0.43;;;;;;;;;;5088381;28;20111;-74
2022/06/09 11:23:20;;;;;;;0.35;0.35;;;;;;;;;;5008775;28;20577;-74
2022/06/09 11:26:03;;;;;;;0.20;0.20;;;;;;;;;;5008437;28;20042;-75
2022/06/09 11:28:35;;;;;;;0.15;0.15;;;;;;;;;;5067007;28;20044;-75
2022/06/09 11:31:08;;;;;;;0.20;0.20;;;;;;;;;;5085238;28;20048;-74
2022/06/09 11:33:36;;;;;;;0.32;0.30;;;;;;;;;;5081630;28;20085;-74
2022/06/09 11:36:05;;;;;;;0.20;0.20;;;;;;;;;;5072585;28;20028;-75
2022/06/09 11:38:50;;;;;;;11.13;5.43;;;;;;;;;;5072524;28;20446;-74
2022/06/09 11:41:21;;;;;;;0.20;0.20;;;;;;;;;;5072143;28;20158;-74
2022/06/09 11:43:52;;;;;;;0.20;0.20;;;;;;;;;;5072542;28;20040;-75
2022/06/09 11:46:30;;;;;;;0.20;0.20;;;;;;;;;;5090141;28;20105;-76
2022/06/09 11:48:58;;;;;;;0.20;0.20;;;;;;;;;;5072217;28;20089;-75
2022/06/09 11:51:26;;;;;;;6.53;2.60;;;;;;;;;;5084952;28;20024;-75
2022/06/09 11:53:55;;;;;;;0.10;0.10;;;;;;;;;;5059254;28;20062;-75
2022/06/09 11:56:33;;;;;;;;;;;;;;;;;;5053268;28;20570;-75
2022/06/09 11:58:59;;;;;;;0.10;0.10;;;;;;;;;;5070900;28;20002;-73
2022/06/09 12:01:31;;;;;;;1.48;0.75;;;;;;;;;;5090072;28;20109;-74
2022/06/09 12:04:15;;;;;;;0.47;0.30;;;;;;;;;;5073281;28;20387;-75
2022/06/09 12:06:56;;;;;;;0.10;0.10;;;;;;;;;;5072409;28;20036;-75
2022/06/09 12:09:35;;;;;;;3.53;1.27;;;;;;;;;;5069939;28;20031;-73
2022/06/09 12:12:04;;;;;;;0.28;0.28;;;;;;;;;;5084781;28;20040;-75
2022/06/09 12:14:32;;;;;;;0.22;0.22;;;;;;;;;;5090781;28;20024;-73
2022/06/09 12:17:08;;;;;;;3.33;0.82;;;;;;;;;;5069614;28;20040;-73
2022/06/09 12:20:00;;;;;;;0.52;0.38;;;;;;;;;;5090594;28;20038;-74
2022/06/09 12:22:41;;;;;;;2.10;1.52;;;;;;;;;;5079068;28;20514;-74
2022/06/09 12:25:14;;;;;;;0.75;0.75;;;;;;;;;;5085517;28;20034;-74
2022/06/09 12:27:42;;;;;;;0.20;0.20;;;;;;;;;;5054165;28;20033;-74
2022/06/09 12:30:24;;;;;;;1.83;0.73;;;;;;;;;;5063591;28;20034;-74
2022/06/09 12:32:52;;;;;;;1.15;0.70;;;;;;;;;;5079739;28;20024;-73
2022/06/09 12:35:23;;;;;;;0.75;0.63;;;;;;;;;;5087826;28;20043;-74
2022/06/09 12:37:52;;;;;;;0.98;0.73;;;;;;;;;;5061234;28;20029;-75
2022/06/09 12:40:18;;;;;;;0.28;0.28;;;;;;;;;;5068692;28;20040;-75
2022/06/09 12:42:43;;;;;;;3.95;0.80;;;;;;;;;;5053253;28;20491;-75
2022/06/09 12:45:09;;;;;;;4.75;1.48;;;;;;;;;;5053333;28;20032;-73
2022/06/09 12:47:35;;;;;;;11.60;1.88;;;;;;;;;;5083195;28;20024;-77
2022/06/09 12:50:19;;;;;;;4.95;2.00;;;;;;;;;;5080849;28;20099;-76
2022/06/09 12:52:45;;;;;;;6.93;1.80;;;;;;;;;;5072898;28;20036;-75
2022/06/09 12:55:20;;;;;;;9.63;2.70;;;;;;;;;;5089673;28;20040;-74
2022/06/09 12:57:51;;;;;;;7.00;2.10;;;;;;;;;;5090858;28;20086;-76
2022/06/09 13:00:16;;;;;;;1.05;0.63;;;;;;;;;;5090378;28;20039;-74
2022/06/09 13:02:42;;;;;;;0.40;0.32;;;;;;;;;;5090565;28;20383;-76
2022/06/09 13:05:10;;;;;;;1.08;0.52;;;;;;;;;;5072136;28;20403;-76
2022/06/09 13:07:46;;;;;;;0.20;0.20;;;;;;;;;;5083664;28;20040;-75
2022/06/09 13:10:29;;;;;;;0.22;0.22;;;;;;;;;;5070985;28;20107;-76
2022/06/09 13:13:01;;;;;;;0.43;0.30;;;;;;;;;;5069705;28;20051;-75
2022/06/09 13:15:33;;;;;;;0.10;0.10;;;;;;;;;;5081105;28;20043;-76
2022/06/09 13:18:13;;;;;;;0.10;0.10;;;;;;;;;;5059979;28;20387;-75
2022/06/09 13:20:40;;;;;;;0.20;0.20;;;;;;;;;;5069819;28;20488;-75
2022/06/09 13:23:07;;;;;;;0.50;0.50;;;;;;;;;;5034895;28;20032;-74
2022/06/09 13:25:32;;;;;;;0.32;0.32;;;;;;;;;;5051892;28;20596;-77
2022/06/09 13:27:59;;;;;;;0.10;0.10;;;;;;;;;;5074308;28;20468;-75
2022/06/09 13:30:25;;;;;;;0.10;0.10;;;;;;;;;;5076363;28;20028;-74
2022/06/09 13:32:50;;;;;;;0.20;0.20;;;;;;;;;;5069505;28;20101;-75
2022/06/09 13:35:28;;;;;;;0.10;0.10;;;;;;;;;;5069579;28;20071;-76
2022/06/09 13:38:02;;;;;;;0.10;0.10;;;;;;;;;;5069554;28;20032;-76
2022/06/09 13:40:39;;;;;;;0.13;0.13;;;;;;;;;;5069392;28;20365;-74
2022/06/09 13:43:04;;;;;;;0.10;0.10;;;;;;;;;;5068898;28;20036;-77
2022/06/09 13:45:31;;;;;;;0.20;0.20;;;;;;;;;;5069249;28;20475;-75
2022/06/09 13:48:12;;;;;;;0.20;0.20;;;;;;;;;;5051311;28;20471;-74
2022/06/09 13:50:43;;;;;;;0.20;0.20;;;;;;;;;;5069249;28;20373;-75
2022/06/09 13:53:27;;;;;;;3.38;2.83;;;;;;;;;;5051386;28;20878;-75
2022/06/09 13:55:54;;;;;;;0.20;0.20;;;;;;;;;;5068865;28;20537;-77
2022/06/09 13:58:20;;;;;;;0.20;0.20;;;;;;;;;;5051141;28;20036;-75
2022/06/09 14:00:46;;;;;;;0.65;0.65;;;;;;;;;;5069160;28;20475;-78
2022/06/09 14:03:17;;;;;;;0.10;0.10;;;;;;;;;;5068727;28;20109;-75
2022/06/09 14:05:45;;;;;;;0.10;0.10;;;;;;;;;;5069092;28;20040;-76
2022/06/09 14:08:12;;;;;;;0.20;0.20;;;;;;;;;;5050826;28;20464;-74
2022/06/09 14:10:38;;;;;;;0.10;0.10;;;;;;;;;;5050657;28;20074;-75
2022/06/09 14:13:04;;;;;;;0.10;0.10;;;;;;;;;;5062354;28;20472;-75
2022/06/09 14:15:32;;;;;;;0.10;0.10;;;;;;;;;;5068829;28;20024;-75
2022/06/09 14:17:57;;;;;;;0.20;0.20;;;;;;;;;;5068599;28;20041;-75
2022/06/09 14:20:30;;;;;;;0.20;0.20;;;;;;;;;;5057307;28;20711;-74
2022/06/09 14:22:56;;;;;;;0.10;0.10;;;;;;;;;;5054359;28;20051;-74
2022/06/09 14:25:23;;;;;;;0.20;0.20;;;;;;;;;;5068883;28;20028;-76
2022/06/09 14:27:48;;;;;;;0.10;0.10;;;;;;;;;;5068336;28;20029;-76
2022/06/09 14:30:15;;;;;;;0.20;0.20;;;;;;;;;;5068275;28;20089;-77
2022/06/09 14:32:40;;;;;;;0.20;0.20;;;;;;;;;;5073642;28;20044;-75
2022/06/09 14:35:06;;;;;;;0.10;0.10;;;;;;;;;;5070718;28;20506;-74
2022/06/09 14:37:32;;;;;;;0.10;0.10;;;;;;;;;;5088338;28;20075;-74
2022/06/09 14:39:58;;;;;;;0.10;0.10;;;;;;;;;;5086995;28;20028;-75
2022/06/09 14:42:23;;;;;;;0.20;0.20;;;;;;;;;;5088504;28;20110;-75
2022/06/09 14:44:49;;;;;;;0.10;0.10;;;;;;;;;;5087662;28;20422;-75
2022/06/09 14:47:23;;;;;;;0.10;0.10;;;;;;;;;;5085605;28;20074;-73
2022/06/09 14:49:49;;;;;;;0.10;0.10;;;;;;;;;;5079451;28;20491;-76
2022/06/09 14:52:16;;;;;;;0.10;0.10;;;;;;;;;;5069671;28;20057;-75
2022/06/09 14:54:42;;;;;;;0.20;0.20;;;;;;;;;;5072016;28;20032;-74
2022/06/09 14:57:15;;;;;;;0.10;0.10;;;;;;;;;;5073212;28;20024;-76
2022/06/09 14:59:41;;;;;;;0.10;0.10;;;;;;;;;;5082623;28;20035;-77
2022/06/09 15:02:10;;;;;;;0.10;0.10;;;;;;;;;;5071640;28;20037;-78
2022/06/09 15:04:36;;;;;;;0.20;0.20;;;;;;;;;;5079286;28;20048;-78
2022/06/09 15:07:01;;;;;;;0.20;0.20;;;;;;;;;;5075083;28;20099;-77
2022/06/09 15:09:27;;;;;;;0.20;0.20;;;;;;;;;;5071310;28;20130;-78
2022/06/09 15:11:53;;;;;;;0.20;0.20;;;;;;;;;;5076932;28;20048;-77
2022/06/09 15:14:19;;;;;;;0.45;0.45;;;;;;;;;;5080918;28;20036;-78
2022/06/09 15:16:45;;;;;;;0.20;0.20;;;;;;;;;;5084174;28;20044;-76
2022/06/09 15:19:10;;;;;;;0.20;0.20;;;;;;;;;;5083695;28;20430;-78
2022/06/09 15:21:36;;;;;;;0.30;0.30;;;;;;;;;;5072850;28;20498;-78